sensor_id;sensor_type;location;lat;lon;timestamp;pressure;altitude;pressure_sealevel;temperature;humidity
68226;BME280;55045;49.410;11.030;2023-07-08T00:00:19;98237.53;;;16.35;100.00
68226;BME280;55045;49.410;11.030;2023-07-08T00:03:23;98232.31;;;16.35;100.00
68226;BME280;55045;49.410;11.030;2023-07-08T00:06:27;98225.28;;;16.35;100.00
68226;BME280;55045;49.410;11.030;2023-07-08T00:09:32;98226.75;;;16.27;100.00
68226;BME280;55045;49.410;11.030;2023-07-08T00:12:35;98233.13;;;16.23;100.00
68226;BME280;55045;49.410;11.030;2023-07-08T00:15:39;98221.53;;;16.27;100.00
68226;BME280;55045;49.410;11.030;2023-07-08T00:18:43;98226.66;;;16.16;100.00
68226;BME280;55045;49.410;11.030;2023-07-08T00:21:46;98227.50;;;16.16;100.00
68226;BME280;55045;49.410;11.030;2023-07-08T00:24:51;98231.25;;;16.12;100.00
68226;BME280;55045;49.410;11.030;2023-07-08T00:27:54;98238.38;;;15.97;100.00
68226;BME280;55045;49.410;11.030;2023-07-08T00:31:00;98235.88;;;15.96;100.00
68226;BME280;55045;49.410;11.030;2023-07-08T00:34:04;98230.31;;;15.88;100.00
68226;BME280;55045;49.410;11.030;2023-07-08T00:37:10;98225.81;;;15.90;100.00
68226;BME280;55045;49.410;11.030;2023-07-08T00:40:17;98232.31;;;15.97;100.00
68226;BME280;55045;49.410;11.030;2023-07-08T00:43:23;98232.28;;;15.71;100.00
68226;BME280;55045;49.410;11.030;2023-07-08T00:46:37;98240.25;;;15.82;100.00
68226;BME280;55045;49.410;11.030;2023-07-08T00:49:45;98232.72;;;15.78;100.00
68226;BME280;55045;49.410;11.030;2023-07-08T00:52:50;98238.13;;;15.62;100.00
68226;BME280;55045;49.410;11.030;2023-07-08T00:55:58;98231.22;;;15.61;100.00
68226;BME280;55045;49.410;11.030;2023-07-08T00:59:07;98248.19;;;15.68;100.00
68226;BME280;55045;49.410;11.030;2023-07-08T01:02:14;98242.97;;;15.68;100.00
68226;BME280;55045;49.410;11.030;2023-07-08T01:05:22;98235.56;;;15.48;100.00
68226;BME280;55045;49.410;11.030;2023-07-08T01:08:28;98229.00;;;15.55;100.00
68226;BME280;55045;49.410;11.030;2023-07-08T01:11:34;98227.50;;;15.38;100.00
68226;BME280;55045;49.410;11.030;2023-07-08T01:14:41;98227.13;;;15.44;100.00
68226;BME280;55045;49.410;11.030;2023-07-08T01:17:46;98228.22;;;15.27;100.00
68226;BME280;55045;49.410;11.030;2023-07-08T01:20:49;98228.81;;;15.18;100.00
68226;BME280;55045;49.410;11.030;2023-07-08T01:23:54;98226.75;;;15.23;100.00
68226;BME280;55045;49.410;11.030;2023-07-08T01:26:58;98209.78;;;15.16;100.00
68226;BME280;55045;49.410;11.030;2023-07-08T01:30:04;98223.69;;;15.17;100.00
68226;BME280;55045;49.410;11.030;2023-07-08T01:33:16;98224.19;;;15.09;100.00
68226;BME280;55045;49.410;11.030;2023-07-08T01:36:21;98216.09;;;14.99;100.00
68226;BME280;55045;49.410;11.030;2023-07-08T01:39:30;98220.34;;;14.88;100.00
68226;BME280;55045;49.410;11.030;2023-07-08T01:42:33;98226.97;;;14.93;100.00
68226;BME280;55045;49.410;11.030;2023-07-08T01:45:40;98226.25;;;15.04;100.00
68226;BME280;55045;49.410;11.030;2023-07-08T01:48:46;98222.25;;;14.98;100.00
68226;BME280;55045;49.410;11.030;2023-07-08T01:51:50;98224.25;;;14.95;100.00
68226;BME280;55045;49.410;11.030;2023-07-08T01:54:55;98221.91;;;14.90;100.00
68226;BME280;55045;49.410;11.030;2023-07-08T01:57:59;98204.81;;;14.72;100.00
68226;BME280;55045;49.410;11.030;2023-07-08T02:01:02;98160.88;;;14.37;100.00
68226;BME280;55045;49.410;11.030;2023-07-08T02:04:06;98220.75;;;14.82;100.00
68226;BME280;55045;49.410;11.030;2023-07-08T02:07:11;98227.19;;;14.76;100.00
68226;BME280;55045;49.410;11.030;2023-07-08T02:10:16;98226.56;;;14.73;100.00
68226;BME280;55045;49.410;11.030;2023-07-08T02:13:20;98225.09;;;14.81;100.00
68226;BME280;55045;49.410;11.030;2023-07-08T02:16:24;98237.00;;;14.73;100.00
68226;BME280;55045;49.410;11.030;2023-07-08T02:19:27;98227.75;;;14.67;100.00
68226;BME280;55045;49.410;11.030;2023-07-08T02:22:31;98236.44;;;14.67;100.00
68226;BME280;55045;49.410;11.030;2023-07-08T02:25:35;98229.06;;;14.74;100.00
68226;BME280;55045;49.410;11.030;2023-07-08T02:28:39;98162.50;;;14.11;100.00
68226;BME280;55045;49.410;11.030;2023-07-08T02:31:42;98230.50;;;14.51;100.00
68226;BME280;55045;49.410;11.030;2023-07-08T02:34:45;98229.38;;;14.55;100.00
68226;BME280;55045;49.410;11.030;2023-07-08T02:37:49;98223.38;;;14.39;100.00
68226;BME280;55045;49.410;11.030;2023-07-08T02:40:53;98218.47;;;14.90;100.00
68226;BME280;55045;49.410;11.030;2023-07-08T02:43:56;98220.25;;;14.34;100.00
68226;BME280;55045;49.410;11.030;2023-07-08T02:47:00;98228.44;;;14.28;100.00
68226;BME280;55045;49.410;11.030;2023-07-08T02:50:04;98231.44;;;14.22;100.00
68226;BME280;55045;49.410;11.030;2023-07-08T02:53:07;98233.09;;;14.23;100.00
68226;BME280;55045;49.410;11.030;2023-07-08T02:56:11;98231.78;;;14.16;100.00
68226;BME280;55045;49.410;11.030;2023-07-08T02:59:15;98230.56;;;14.07;100.00
68226;BME280;55045;49.410;11.030;2023-07-08T03:02:18;98227.69;;;13.97;100.00
68226;BME280;55045;49.410;11.030;2023-07-08T03:05:22;98233.94;;;13.95;100.00
68226;BME280;55045;49.410;11.030;2023-07-08T03:08:25;98244.91;;;13.71;100.00
68226;BME280;55045;49.410;11.030;2023-07-08T03:11:30;98251.50;;;13.77;100.00
68226;BME280;55045;49.410;11.030;2023-07-08T03:14:33;98247.31;;;13.89;100.00
68226;BME280;55045;49.410;11.030;2023-07-08T03:17:36;98255.13;;;13.74;100.00
68226;BME280;55045;49.410;11.030;2023-07-08T03:20:40;98261.53;;;13.69;100.00
68226;BME280;55045;49.410;11.030;2023-07-08T03:23:48;98263.09;;;13.57;100.00
68226;BME280;55045;49.410;11.030;2023-07-08T03:26:53;98261.31;;;13.58;100.00
68226;BME280;55045;49.410;11.030;2023-07-08T03:29:59;98264.63;;;13.45;100.00
68226;BME280;55045;49.410;11.030;2023-07-08T03:35:03;98261.00;;;13.48;100.00
68226;BME280;55045;49.410;11.030;2023-07-08T03:38:06;98268.47;;;13.54;100.00
68226;BME280;55045;49.410;11.030;2023-07-08T03:41:10;98276.00;;;13.44;100.00
68226;BME280;55045;49.410;11.030;2023-07-08T03:44:13;98272.75;;;13.55;100.00
68226;BME280;55045;49.410;11.030;2023-07-08T03:47:17;98284.63;;;13.45;100.00
68226;BME280;55045;49.410;11.030;2023-07-08T03:50:25;98286.41;;;13.44;100.00
68226;BME280;55045;49.410;11.030;2023-07-08T03:53:28;98288.91;;;13.46;100.00
68226;BME280;55045;49.410;11.030;2023-07-08T03:56:32;98287.56;;;13.54;100.00
68226;BME280;55045;49.410;11.030;2023-07-08T03:59:36;98286.38;;;13.60;100.00
68226;BME280;55045;49.410;11.030;2023-07-08T04:02:47;98274.50;;;13.84;100.00
68226;BME280;55045;49.410;11.030;2023-07-08T04:05:56;98269.44;;;14.11;100.00
68226;BME280;55045;49.410;11.030;2023-07-08T04:09:00;98266.16;;;13.94;100.00
68226;BME280;55045;49.410;11.030;2023-07-08T04:12:04;98269.22;;;13.86;100.00
68226;BME280;55045;49.410;11.030;2023-07-08T04:15:09;98270.31;;;13.82;100.00
68226;BME280;55045;49.410;11.030;2023-07-08T04:18:13;98262.72;;;13.93;100.00
68226;BME280;55045;49.410;11.030;2023-07-08T04:21:18;98274.06;;;13.92;100.00
68226;BME280;55045;49.410;11.030;2023-07-08T04:24:39;98265.41;;;13.92;100.00
68226;BME280;55045;49.410;11.030;2023-07-08T04:27:42;98277.06;;;14.00;100.00
68226;BME280;55045;49.410;11.030;2023-07-08T04:30:46;98280.13;;;14.07;100.00
68226;BME280;55045;49.410;11.030;2023-07-08T04:33:49;98273.25;;;14.20;100.00
68226;BME280;55045;49.410;11.030;2023-07-08T04:36:53;98279.31;;;14.21;100.00
68226;BME280;55045;49.410;11.030;2023-07-08T04:39:57;98289.56;;;14.38;100.00
68226;BME280;55045;49.410;11.030;2023-07-08T04:43:01;98278.03;;;14.56;100.00
68226;BME280;55045;49.410;11.030;2023-07-08T04:46:08;98274.56;;;14.56;100.00
68226;BME280;55045;49.410;11.030;2023-07-08T04:49:18;98283.41;;;14.67;100.00
68226;BME280;55045;49.410;11.030;2023-07-08T04:52:23;98273.03;;;14.94;100.00
68226;BME280;55045;49.410;11.030;2023-07-08T04:55:27;98276.97;;;15.14;100.00
68226;BME280;55045;49.410;11.030;2023-07-08T04:58:30;98278.78;;;15.26;100.00
68226;BME280;55045;49.410;11.030;2023-07-08T05:01:33;98282.31;;;15.52;100.00
68226;BME280;55045;49.410;11.030;2023-07-08T05:04:37;98286.41;;;15.56;100.00
68226;BME280;55045;49.410;11.030;2023-07-08T05:07:42;98221.75;;;15.33;100.00
68226;BME280;55045;49.410;11.030;2023-07-08T05:10:45;98285.34;;;15.86;100.00
68226;BME280;55045;49.410;11.030;2023-07-08T05:13:48;98288.91;;;16.49;100.00
68226;BME280;55045;49.410;11.030;2023-07-08T05:16:52;98293.84;;;16.40;100.00
68226;BME280;55045;49.410;11.030;2023-07-08T05:19:55;98286.34;;;16.85;100.00
68226;BME280;55045;49.410;11.030;2023-07-08T05:23:01;98290.88;;;17.20;100.00
68226;BME280;55045;49.410;11.030;2023-07-08T05:26:05;98296.34;;;16.80;100.00
68226;BME280;55045;49.410;11.030;2023-07-08T05:29:09;98279.66;;;16.81;100.00
68226;BME280;55045;49.410;11.030;2023-07-08T05:32:12;98293.91;;;17.14;100.00
68226;BME280;55045;49.410;11.030;2023-07-08T05:35:15;98295.03;;;17.46;100.00
68226;BME280;55045;49.410;11.030;2023-07-08T05:38:20;98303.91;;;17.80;100.00
68226;BME280;55045;49.410;11.030;2023-07-08T05:41:23;98299.94;;;18.10;100.00
68226;BME280;55045;49.410;11.030;2023-07-08T05:44:27;98308.66;;;18.22;100.00
68226;BME280;55045;49.410;11.030;2023-07-08T05:47:30;98296.25;;;18.46;100.00
68226;BME280;55045;49.410;11.030;2023-07-08T05:50:34;98294.34;;;18.26;100.00
68226;BME280;55045;49.410;11.030;2023-07-08T05:53:38;98298.91;;;18.80;100.00
68226;BME280;55045;49.410;11.030;2023-07-08T05:56:41;98303.63;;;19.19;98.03
68226;BME280;55045;49.410;11.030;2023-07-08T05:59:45;98306.34;;;19.72;95.74
68226;BME280;55045;49.410;11.030;2023-07-08T06:02:48;98300.53;;;21.02;88.39
68226;BME280;55045;49.410;11.030;2023-07-08T06:05:51;98296.03;;;20.83;88.82
68226;BME280;55045;49.410;11.030;2023-07-08T06:08:56;98293.94;;;22.04;83.39
68226;BME280;55045;49.410;11.030;2023-07-08T06:11:59;98299.38;;;22.12;79.87
68226;BME280;55045;49.410;11.030;2023-07-08T06:15:03;98287.47;;;22.83;77.93
68226;BME280;55045;49.410;11.030;2023-07-08T06:18:06;98284.91;;;22.63;76.39
68226;BME280;55045;49.410;11.030;2023-07-08T06:21:10;98286.63;;;22.45;78.17
68226;BME280;55045;49.410;11.030;2023-07-08T06:24:14;98253.38;;;22.80;76.57
68226;BME280;55045;49.410;11.030;2023-07-08T06:27:17;98286.91;;;23.34;75.47
68226;BME280;55045;49.410;11.030;2023-07-08T06:30:21;98288.03;;;23.32;75.75
68226;BME280;55045;49.410;11.030;2023-07-08T06:33:24;98289.13;;;23.74;73.11
68226;BME280;55045;49.410;11.030;2023-07-08T06:36:27;98287.88;;;24.04;72.05
68226;BME280;55045;49.410;11.030;2023-07-08T06:39:34;98270.19;;;23.34;74.39
68226;BME280;55045;49.410;11.030;2023-07-08T06:42:39;98295.09;;;23.76;74.14
68226;BME280;55045;49.410;11.030;2023-07-08T06:45:51;98293.13;;;24.82;65.91
68226;BME280;55045;49.410;11.030;2023-07-08T06:48:54;98289.16;;;24.26;68.37
68226;BME280;55045;49.410;11.030;2023-07-08T06:51:58;98287.22;;;24.96;64.59
68226;BME280;55045;49.410;11.030;2023-07-08T06:55:06;98282.19;;;24.77;66.53
68226;BME280;55045;49.410;11.030;2023-07-08T06:58:10;98271.22;;;25.14;65.84
68226;BME280;55045;49.410;11.030;2023-07-08T07:01:14;98277.47;;;25.96;61.67
68226;BME280;55045;49.410;11.030;2023-07-08T07:04:17;98278.75;;;26.25;61.28
68226;BME280;55045;49.410;11.030;2023-07-08T07:07:21;98262.78;;;26.33;60.83
68226;BME280;55045;49.410;11.030;2023-07-08T07:10:25;98262.16;;;25.49;63.11
68226;BME280;55045;49.410;11.030;2023-07-08T07:13:28;98264.44;;;26.34;60.26
68226;BME280;55045;49.410;11.030;2023-07-08T07:16:31;98258.34;;;26.73;60.62
68226;BME280;55045;49.410;11.030;2023-07-08T07:19:35;98259.94;;;26.90;59.02
68226;BME280;55045;49.410;11.030;2023-07-08T07:22:38;98264.19;;;27.38;57.47
68226;BME280;55045;49.410;11.030;2023-07-08T07:25:45;98259.91;;;26.98;58.55
68226;BME280;55045;49.410;11.030;2023-07-08T07:28:49;98254.97;;;27.49;54.90
68226;BME280;55045;49.410;11.030;2023-07-08T07:31:52;98254.38;;;27.62;54.67
68226;BME280;55045;49.410;11.030;2023-07-08T07:34:56;98251.75;;;26.99;55.45
68226;BME280;55045;49.410;11.030;2023-07-08T07:38:01;98256.59;;;27.96;52.52
68226;BME280;55045;49.410;11.030;2023-07-08T07:41:05;98262.50;;;28.06;52.50
68226;BME280;55045;49.410;11.030;2023-07-08T07:44:12;98258.81;;;28.45;50.77
68226;BME280;55045;49.410;11.030;2023-07-08T07:47:15;98266.47;;;28.25;48.91
68226;BME280;55045;49.410;11.030;2023-07-08T07:50:18;98269.72;;;28.20;48.83
68226;BME280;55045;49.410;11.030;2023-07-08T07:53:22;98266.72;;;28.53;48.48
68226;BME280;55045;49.410;11.030;2023-07-08T07:56:27;98268.19;;;28.03;48.32
68226;BME280;55045;49.410;11.030;2023-07-08T07:59:30;98248.03;;;28.53;47.59
68226;BME280;55045;49.410;11.030;2023-07-08T08:02:33;98253.69;;;28.79;48.52
68226;BME280;55045;49.410;11.030;2023-07-08T08:05:37;98259.44;;;28.76;46.90
68226;BME280;55045;49.410;11.030;2023-07-08T08:08:40;98258.78;;;28.74;46.11
68226;BME280;55045;49.410;11.030;2023-07-08T08:11:44;98262.38;;;28.96;46.12
68226;BME280;55045;49.410;11.030;2023-07-08T08:14:47;98262.78;;;29.14;45.30
68226;BME280;55045;49.410;11.030;2023-07-08T08:17:51;98257.47;;;28.85;44.70
68226;BME280;55045;49.410;11.030;2023-07-08T08:20:54;98263.66;;;28.85;44.75
68226;BME280;55045;49.410;11.030;2023-07-08T08:23:58;98260.09;;;28.63;44.54
68226;BME280;55045;49.410;11.030;2023-07-08T08:27:04;98250.06;;;27.98;44.63
68226;BME280;55045;49.410;11.030;2023-07-08T08:30:08;98253.66;;;29.23;44.05
68226;BME280;55045;49.410;11.030;2023-07-08T08:33:12;98259.34;;;29.20;42.11
68226;BME280;55045;49.410;11.030;2023-07-08T08:36:15;98262.72;;;28.78;42.16
68226;BME280;55045;49.410;11.030;2023-07-08T08:39:18;98260.91;;;28.93;42.02
68226;BME280;55045;49.410;11.030;2023-07-08T08:42:26;98263.44;;;29.02;43.01
68226;BME280;55045;49.410;11.030;2023-07-08T08:45:34;98260.56;;;29.18;42.14
68226;BME280;55045;49.410;11.030;2023-07-08T08:48:51;98266.59;;;28.90;39.37
68226;BME280;55045;49.410;11.030;2023-07-08T08:51:58;98268.72;;;29.31;39.52
68226;BME280;55045;49.410;11.030;2023-07-08T08:55:01;98272.94;;;29.62;39.28
68226;BME280;55045;49.410;11.030;2023-07-08T08:58:15;98267.84;;;29.24;37.88
68226;BME280;55045;49.410;11.030;2023-07-08T09:01:23;98265.88;;;29.33;39.15
68226;BME280;55045;49.410;11.030;2023-07-08T09:04:29;98267.78;;;29.81;39.43
68226;BME280;55045;49.410;11.030;2023-07-08T09:07:41;98266.25;;;29.72;38.40
68226;BME280;55045;49.410;11.030;2023-07-08T09:10:51;98266.56;;;30.05;35.41
68226;BME280;55045;49.410;11.030;2023-07-08T09:13:58;98266.69;;;30.19;34.41
68226;BME280;55045;49.410;11.030;2023-07-08T09:17:14;98266.41;;;30.14;33.00
68226;BME280;55045;49.410;11.030;2023-07-08T09:20:22;98266.06;;;29.95;33.08
68226;BME280;55045;49.410;11.030;2023-07-08T09:23:28;98264.78;;;29.91;32.61
68226;BME280;55045;49.410;11.030;2023-07-08T09:26:33;98272.91;;;29.76;33.62
68226;BME280;55045;49.410;11.030;2023-07-08T09:29:38;98268.38;;;30.26;31.93
68226;BME280;55045;49.410;11.030;2023-07-08T09:35:04;98271.25;;;30.25;32.27
68226;BME280;55045;49.410;11.030;2023-07-08T09:38:11;98273.41;;;30.43;31.12
68226;BME280;55045;49.410;11.030;2023-07-08T09:41:29;98261.78;;;30.01;31.99
68226;BME280;55045;49.410;11.030;2023-07-08T09:44:32;98269.25;;;30.05;31.40
68226;BME280;55045;49.410;11.030;2023-07-08T09:47:37;98269.50;;;29.89;31.20
68226;BME280;55045;49.410;11.030;2023-07-08T09:50:46;98269.59;;;30.02;31.03
68226;BME280;55045;49.410;11.030;2023-07-08T09:53:50;98258.84;;;30.17;30.79
68226;BME280;55045;49.410;11.030;2023-07-08T09:57:03;98276.50;;;30.11;31.01
68226;BME280;55045;49.410;11.030;2023-07-08T10:00:11;98273.72;;;29.77;30.45
68226;BME280;55045;49.410;11.030;2023-07-08T10:03:19;98265.28;;;30.01;30.90
68226;BME280;55045;49.410;11.030;2023-07-08T10:06:27;98261.97;;;30.55;29.94
68226;BME280;55045;49.410;11.030;2023-07-08T10:09:31;98267.72;;;30.24;29.54
68226;BME280;55045;49.410;11.030;2023-07-08T10:12:37;98265.81;;;29.90;29.67
68226;BME280;55045;49.410;11.030;2023-07-08T10:15:45;98268.22;;;30.34;30.07
68226;BME280;55045;49.410;11.030;2023-07-08T10:18:49;98253.78;;;30.29;29.71
68226;BME280;55045;49.410;11.030;2023-07-08T10:22:09;98260.34;;;29.77;29.74
68226;BME280;55045;49.410;11.030;2023-07-08T10:25:24;98258.50;;;30.27;29.58
68226;BME280;55045;49.410;11.030;2023-07-08T10:28:34;98255.16;;;29.69;30.02
68226;BME280;55045;49.410;11.030;2023-07-08T10:31:46;98261.28;;;30.12;30.03
68226;BME280;55045;49.410;11.030;2023-07-08T10:34:54;98249.31;;;30.71;30.11
68226;BME280;55045;49.410;11.030;2023-07-08T10:38:18;98241.78;;;30.53;28.86
68226;BME280;55045;49.410;11.030;2023-07-08T10:41:32;98248.59;;;30.96;28.98
68226;BME280;55045;49.410;11.030;2023-07-08T10:44:48;98247.59;;;30.63;30.37
68226;BME280;55045;49.410;11.030;2023-07-08T10:48:07;98257.53;;;30.06;29.19
68226;BME280;55045;49.410;11.030;2023-07-08T10:51:22;98256.53;;;30.42;29.77
68226;BME280;55045;49.410;11.030;2023-07-08T10:54:39;98255.22;;;30.25;30.49
68226;BME280;55045;49.410;11.030;2023-07-08T10:58:17;98244.59;;;30.38;29.62
68226;BME280;55045;49.410;11.030;2023-07-08T11:01:29;98250.22;;;30.15;28.91
68226;BME280;55045;49.410;11.030;2023-07-08T11:04:50;98244.09;;;30.28;28.42
68226;BME280;55045;49.410;11.030;2023-07-08T11:07:58;98241.31;;;29.87;29.25
68226;BME280;55045;49.410;11.030;2023-07-08T11:11:09;98237.66;;;30.50;29.03
68226;BME280;55045;49.410;11.030;2023-07-08T11:14:22;98233.31;;;30.49;28.85
68226;BME280;55045;49.410;11.030;2023-07-08T11:17:30;98240.25;;;30.72;28.96
68226;BME280;55045;49.410;11.030;2023-07-08T11:20:40;98240.59;;;30.62;28.51
68226;BME280;55045;49.410;11.030;2023-07-08T11:23:46;98231.59;;;30.35;29.34
68226;BME280;55045;49.410;11.030;2023-07-08T11:26:55;98236.56;;;29.61;28.85
68226;BME280;55045;49.410;11.030;2023-07-08T11:30:02;98232.72;;;29.70;29.90
68226;BME280;55045;49.410;11.030;2023-07-08T11:33:11;98224.16;;;30.65;29.52
68226;BME280;55045;49.410;11.030;2023-07-08T11:36:17;98231.66;;;30.48;29.24
68226;BME280;55045;49.410;11.030;2023-07-08T11:39:32;98225.22;;;30.36;30.17
68226;BME280;55045;49.410;11.030;2023-07-08T11:42:39;98220.34;;;30.87;29.99
68226;BME280;55045;49.410;11.030;2023-07-08T11:45:43;98230.31;;;30.31;29.42
68226;BME280;55045;49.410;11.030;2023-07-08T11:48:49;98219.34;;;30.54;30.78
68226;BME280;55045;49.410;11.030;2023-07-08T11:51:55;98214.38;;;30.92;30.42
68226;BME280;55045;49.410;11.030;2023-07-08T11:55:11;98219.38;;;31.08;29.03
68226;BME280;55045;49.410;11.030;2023-07-08T11:58:21;98215.25;;;30.58;29.04
68226;BME280;55045;49.410;11.030;2023-07-08T12:01:27;98217.91;;;30.17;29.89
68226;BME280;55045;49.410;11.030;2023-07-08T12:04:55;98215.63;;;30.55;29.01
68226;BME280;55045;49.410;11.030;2023-07-08T12:07:58;98200.34;;;30.77;28.66
68226;BME280;55045;49.410;11.030;2023-07-08T12:11:03;98216.84;;;30.46;29.11
68226;BME280;55045;49.410;11.030;2023-07-08T12:14:08;98207.06;;;30.31;29.22
68226;BME280;55045;49.410;11.030;2023-07-08T12:17:12;98198.31;;;30.92;28.70
68226;BME280;55045;49.410;11.030;2023-07-08T12:20:19;98208.53;;;31.56;28.88
68226;BME280;55045;49.410;11.030;2023-07-08T12:23:25;98201.22;;;30.97;28.41
68226;BME280;55045;49.410;11.030;2023-07-08T12:26:29;98207.63;;;30.61;29.13
68226;BME280;55045;49.410;11.030;2023-07-08T12:29:33;98212.16;;;31.09;28.98
68226;BME280;55045;49.410;11.030;2023-07-08T12:32:37;98203.34;;;31.21;28.81
68226;BME280;55045;49.410;11.030;2023-07-08T12:35:41;98214.06;;;31.21;28.45
68226;BME280;55045;49.410;11.030;2023-07-08T12:38:46;98207.72;;;30.68;28.36
68226;BME280;55045;49.410;11.030;2023-07-08T12:41:50;98208.09;;;30.65;29.61
68226;BME280;55045;49.410;11.030;2023-07-08T12:44:54;98204.09;;;30.48;28.55
68226;BME280;55045;49.410;11.030;2023-07-08T12:47:58;98210.75;;;31.19;28.93
68226;BME280;55045;49.410;11.030;2023-07-08T12:51:03;98203.25;;;30.95;29.36
68226;BME280;55045;49.410;11.030;2023-07-08T12:54:09;98197.03;;;30.81;27.70
68226;BME280;55045;49.410;11.030;2023-07-08T12:57:13;98207.09;;;31.34;28.36
68226;BME280;55045;49.410;11.030;2023-07-08T13:00:23;98204.22;;;31.42;27.64
68226;BME280;55045;49.410;11.030;2023-07-08T13:03:28;98200.28;;;31.64;27.64
68226;BME280;55045;49.410;11.030;2023-07-08T13:06:33;98198.09;;;30.87;28.12
68226;BME280;55045;49.410;11.030;2023-07-08T13:09:38;98206.19;;;30.24;28.20
68226;BME280;55045;49.410;11.030;2023-07-08T13:12:43;98203.88;;;30.49;27.90
68226;BME280;55045;49.410;11.030;2023-07-08T13:15:47;98206.06;;;30.04;29.63
68226;BME280;55045;49.410;11.030;2023-07-08T13:18:51;98201.41;;;30.54;29.54
68226;BME280;55045;49.410;11.030;2023-07-08T13:21:54;98213.63;;;30.01;29.46
68226;BME280;55045;49.410;11.030;2023-07-08T13:25:00;98212.72;;;29.87;31.19
68226;BME280;55045;49.410;11.030;2023-07-08T13:28:18;98200.03;;;30.24;29.64
68226;BME280;55045;49.410;11.030;2023-07-08T13:31:23;98208.31;;;30.29;28.91
68226;BME280;55045;49.410;11.030;2023-07-08T13:34:27;98216.44;;;30.14;29.02
68226;BME280;55045;49.410;11.030;2023-07-08T13:37:31;98210.25;;;30.14;29.07
68226;BME280;55045;49.410;11.030;2023-07-08T13:40:35;98183.56;;;29.64;29.60
68226;BME280;55045;49.410;11.030;2023-07-08T13:43:40;98205.56;;;30.16;29.67
68226;BME280;55045;49.410;11.030;2023-07-08T13:46:51;98201.09;;;30.01;30.17
68226;BME280;55045;49.410;11.030;2023-07-08T13:49:59;98196.91;;;29.92;28.99
68226;BME280;55045;49.410;11.030;2023-07-08T13:53:15;98200.16;;;29.38;30.00
68226;BME280;55045;49.410;11.030;2023-07-08T13:56:21;98197.78;;;29.99;28.35
68226;BME280;55045;49.410;11.030;2023-07-08T13:59:25;98196.28;;;29.90;28.90
68226;BME280;55045;49.410;11.030;2023-07-08T14:02:31;98186.44;;;30.19;29.00
68226;BME280;55045;49.410;11.030;2023-07-08T14:05:36;98186.06;;;30.28;30.52
68226;BME280;55045;49.410;11.030;2023-07-08T14:08:40;98184.06;;;30.37;29.02
68226;BME280;55045;49.410;11.030;2023-07-08T14:11:43;98183.84;;;30.80;29.29
68226;BME280;55045;49.410;11.030;2023-07-08T14:14:47;98183.72;;;31.01;29.07
68226;BME280;55045;49.410;11.030;2023-07-08T14:17:51;98180.41;;;31.06;30.52
68226;BME280;55045;49.410;11.030;2023-07-08T14:20:54;98176.28;;;30.96;29.61
68226;BME280;55045;49.410;11.030;2023-07-08T14:23:58;98173.28;;;31.52;29.24
68226;BME280;55045;49.410;11.030;2023-07-08T14:27:04;98169.03;;;30.84;29.84
68226;BME280;55045;49.410;11.030;2023-07-08T14:30:12;98150.06;;;30.85;29.67
68226;BME280;55045;49.410;11.030;2023-07-08T14:33:18;98170.69;;;30.78;29.40
68226;BME280;55045;49.410;11.030;2023-07-08T14:36:21;98168.34;;;31.30;30.00
68226;BME280;55045;49.410;11.030;2023-07-08T14:39:25;98166.28;;;31.58;31.09
68226;BME280;55045;49.410;11.030;2023-07-08T14:42:28;98159.09;;;31.78;31.39
68226;BME280;55045;49.410;11.030;2023-07-08T14:45:37;98164.41;;;31.45;30.23
68226;BME280;55045;49.410;11.030;2023-07-08T14:48:43;98159.28;;;31.77;29.99
68226;BME280;55045;49.410;11.030;2023-07-08T14:51:47;98163.38;;;31.99;30.69
68226;BME280;55045;49.410;11.030;2023-07-08T14:54:50;98116.50;;;30.83;31.01
68226;BME280;55045;49.410;11.030;2023-07-08T14:57:54;98160.47;;;30.60;31.30
68226;BME280;55045;49.410;11.030;2023-07-08T15:00:59;98155.47;;;30.44;31.24
68226;BME280;55045;49.410;11.030;2023-07-08T15:04:10;98156.50;;;31.04;31.84
68226;BME280;55045;49.410;11.030;2023-07-08T15:07:14;98165.44;;;31.31;32.13
68226;BME280;55045;49.410;11.030;2023-07-08T15:10:18;98166.22;;;31.12;29.88
68226;BME280;55045;49.410;11.030;2023-07-08T15:13:26;98153.56;;;30.73;31.14
68226;BME280;55045;49.410;11.030;2023-07-08T15:16:32;98155.06;;;30.88;30.89
68226;BME280;55045;49.410;11.030;2023-07-08T15:19:36;98159.88;;;31.33;30.83
68226;BME280;55045;49.410;11.030;2023-07-08T15:22:42;98162.16;;;31.29;30.64
68226;BME280;55045;49.410;11.030;2023-07-08T15:25:46;98162.91;;;30.96;31.17
68226;BME280;55045;49.410;11.030;2023-07-08T15:28:51;98164.44;;;31.52;30.55
68226;BME280;55045;49.410;11.030;2023-07-08T15:35:06;98166.66;;;31.35;32.44
68226;BME280;55045;49.410;11.030;2023-07-08T15:38:11;98159.47;;;31.49;32.08
68226;BME280;55045;49.410;11.030;2023-07-08T15:41:19;98154.25;;;31.01;32.20
68226;BME280;55045;49.410;11.030;2023-07-08T15:44:23;98154.75;;;31.38;31.33
68226;BME280;55045;49.410;11.030;2023-07-08T15:47:26;98155.63;;;30.84;30.98
68226;BME280;55045;49.410;11.030;2023-07-08T15:50:31;98153.44;;;31.14;30.79
68226;BME280;55045;49.410;11.030;2023-07-08T15:53:34;98146.63;;;31.11;30.82
68226;BME280;55045;49.410;11.030;2023-07-08T15:56:38;98144.72;;;30.79;31.81
68226;BME280;55045;49.410;11.030;2023-07-08T15:59:41;98143.94;;;30.98;31.21
68226;BME280;55045;49.410;11.030;2023-07-08T16:02:45;98144.91;;;30.71;32.06
68226;BME280;55045;49.410;11.030;2023-07-08T16:05:50;98141.88;;;30.87;31.81
68226;BME280;55045;49.410;11.030;2023-07-08T16:08:53;98141.63;;;30.82;32.14
68226;BME280;55045;49.410;11.030;2023-07-08T16:11:56;98139.78;;;30.82;31.67